Time;durP1;ratioP1;P1;durP2;ratioP2;P2;SDS_P1;SDS_P2;PMS_P1;PMS_P2;Temp;Humidity;BMP_temperature;BMP_pressure;BME280_temperature;BME280_humidity;BME280_pressure;Samples;Min_cycle;Max_cycle;Signal;HPM_P1;HPM_P2
2023/10/02 00:04:56;;;;;;;12.60;8.38;;;;;;;25.62;48.18;101993.00;21139986;28;20035;-64
2023/10/02 00:14:58;;;;;;;13.48;8.85;;;;;;;25.62;48.23;101997.78;21125214;28;20039;-65
2023/10/02 00:25:07;;;;;;;15.23;9.25;;;;;;;25.60;48.35;102001.69;21157171;28;20050;-64
2023/10/02 00:35:12;;;;;;;11.18;8.70;;;;;;;25.43;48.26;101972.34;21154467;28;20062;-63
2023/10/02 00:45:14;;;;;;;12.85;8.95;;;;;;;25.58;48.49;102005.91;21154709;28;20027;-64
2023/10/02 00:55:23;;;;;;;16.20;10.23;;;;;;;25.59;48.50;102004.78;21111975;28;20052;-63
2023/10/02 01:05:41;;;;;;;13.18;9.20;;;;;;;25.60;48.84;102012.06;21141756;28;20048;-62
2023/10/02 01:15:43;;;;;;;;;;;;;;;25.58;49.02;102006.75;21150274;28;20036;-62
2023/10/02 01:25:46;;;;;;;15.10;9.80;;;;;;;25.57;49.40;101998.63;21129313;28;19916;-63
2023/10/02 01:35:50;;;;;;;15.82;9.98;;;;;;;25.60;49.18;102012.91;21151550;28;20081;-62
2023/10/02 01:45:56;;;;;;;12.98;9.95;;;;;;;25.59;49.31;102013.19;21155640;28;20044;-63
2023/10/02 01:56:03;;;;;;;13.47;9.70;;;;;;;25.59;49.23;102004.78;21149201;28;20055;-62
2023/10/02 02:06:11;;;;;;;12.13;8.57;;;;;;;25.47;49.25;101979.03;21149254;28;20391;-63
2023/10/02 02:16:15;;;;;;;14.80;9.27;;;;;;;25.58;49.36;101987.13;21154154;28;20043;-63
2023/10/02 02:26:23;;;;;;;12.35;9.13;;;;;;;25.59;49.54;101999.19;21167204;28;20048;-62
2023/10/02 02:36:26;;;;;;;10.82;7.75;;;;;;;25.59;49.39;102013.19;21165646;28;20100;-63
2023/10/02 02:46:29;;;;;;;10.73;8.40;;;;;;;25.60;49.43;102012.91;21152097;28;20109;-64
2023/10/02 02:56:31;;;;;;;11.02;8.40;;;;;;;25.59;49.38;102005.63;21160103;28;20053;-62
2023/10/02 03:06:35;;;;;;;10.63;8.25;;;;;;;25.61;49.80;102002.50;21166295;28;20039;-63
2023/10/02 03:16:36;;;;;;;10.30;8.00;;;;;;;25.59;49.85;102000.00;21130948;28;20047;-63
2023/10/02 03:26:37;;;;;;;10.80;8.20;;;;;;;25.62;50.06;101998.63;21152612;28;20031;-64
2023/10/02 03:36:39;;;;;;;13.20;8.57;;;;;;;25.59;50.27;101987.97;21141608;28;20047;-64
2023/10/02 03:46:40;;;;;;;15.00;8.60;;;;;;;25.61;50.82;101994.09;21151502;28;20391;-62
2023/10/02 03:56:47;;;;;;;13.73;8.38;;;;;;;25.58;50.60;101991.91;21139812;28;20101;-62
2023/10/02 04:06:53;;;;;;;9.97;7.43;;;;;;;25.64;50.77;101989.91;21155597;28;20052;-61
2023/10/02 04:17:09;;;;;;;12.52;8.27;;;;;;;25.65;50.99;101998.00;21155716;28;20035;-62
2023/10/02 04:27:18;;;;;;;8.57;7.38;;;;;;;25.66;50.93;101988.50;21147268;28;20069;-61
2023/10/02 04:37:19;;;;;;;14.00;7.13;;;;;;;25.66;50.87;101982.91;21104186;28;20191;-60
2023/10/02 04:47:21;;;;;;;8.35;6.82;;;;;;;25.67;50.93;101984.56;21115456;28;20045;-62
2023/10/02 04:57:22;;;;;;;10.13;6.95;;;;;;;25.67;51.05;101994.94;21161485;28;20027;-62
2023/10/02 05:07:24;;;;;;;10.38;7.00;;;;;;;25.67;51.16;102001.38;21175438;28;20088;-61
2023/10/02 05:17:46;;;;;;;9.20;6.65;;;;;;;25.67;51.11;102012.59;21173486;28;20044;-61
2023/10/02 05:27:47;;;;;;;11.10;7.63;;;;;;;25.68;51.20;102022.69;21162106;28;20552;-61
2023/10/02 05:37:54;;;;;;;10.20;7.28;;;;;;;25.69;51.17;102032.75;21122571;28;20040;-61
2023/10/02 05:47:55;;;;;;;8.80;7.03;;;;;;;25.64;51.23;102034.75;21123634;28;20104;-61
2023/10/02 05:57:58;;;;;;;8.57;6.63;;;;;;;25.71;51.31;102046.50;21174195;28;20031;-62
2023/10/02 06:07:59;;;;;;;9.07;7.13;;;;;;;25.63;51.10;102036.72;21173123;28;20039;-61
2023/10/02 06:18:01;;;;;;;9.38;6.75;;;;;;;25.71;51.26;102052.94;21157801;28;20048;-60
2023/10/02 06:28:23;;;;;;;7.55;5.97;;;;;;;25.70;51.21;102051.25;21110238;28;20040;-61
2023/10/02 06:38:29;;;;;;;10.50;6.80;;;;;;;25.68;51.29;102047.91;21099400;28;20453;-62
2023/10/02 06:48:32;;;;;;;7.37;6.00;;;;;;;25.73;51.22;102056.28;21138918;28;20035;-62
2023/10/02 06:58:49;;;;;;;7.85;6.50;;;;;;;25.61;51.31;102036.16;21168614;27;20042;-60
2023/10/02 07:09:12;;;;;;;8.02;6.13;;;;;;;25.73;51.29;102061.91;21168090;28;20043;-62
2023/10/02 07:19:12;;;;;;;8.10;6.57;;;;;;;25.74;51.46;102052.34;21168321;28;20036;-62
2023/10/02 07:29:13;;;;;;;9.57;6.32;;;;;;;25.74;51.37;102043.94;21156369;28;20035;-62
2023/10/02 07:49:34;;;;;;;8.35;6.30;;;;;;;25.75;51.38;102042.84;21155928;28;20043;-60
2023/10/02 07:59:36;;;;;;;6.72;6.00;;;;;;;25.74;51.65;102041.16;21155179;28;20076;-62
2023/10/02 08:09:38;;;;;;;6.80;5.85;;;;;;;25.76;51.33;102044.53;21158690;28;20550;-61
2023/10/02 08:19:39;;;;;;;7.78;5.97;;;;;;;25.75;51.29;102037.25;21153156;28;20028;-61
2023/10/02 08:29:41;;;;;;;7.32;5.85;;;;;;;25.71;51.19;102038.09;21146677;28;20043;-61
2023/10/02 08:39:44;;;;;;;7.60;6.10;;;;;;;25.78;51.54;102038.66;21144352;28;20040;-62
2023/10/02 08:49:47;;;;;;;8.23;6.20;;;;;;;25.78;51.49;102045.09;21147002;28;20128;-61
2023/10/02 09:00:09;;;;;;;6.97;5.68;;;;;;;25.78;51.28;102039.47;21159952;28;20392;-62
2023/10/02 09:10:18;;;;;;;10.02;6.28;;;;;;;25.80;51.61;102051.25;21145918;28;20482;-62
2023/10/02 09:20:46;;;;;;;7.28;5.70;;;;;;;25.78;51.50;102059.09;21159520;28;20372;-61
2023/10/02 09:30:49;;;;;;;6.38;5.60;;;;;;;25.80;51.32;102056.03;21153220;28;20109;-61
2023/10/02 09:51:06;;;;;;;6.03;5.30;;;;;;;25.74;51.32;102046.75;21143684;28;20036;-61
2023/10/02 10:01:34;;;;;;;6.25;5.60;;;;;;;25.80;51.43;102062.47;21148847;28;20040;-61
2023/10/02 10:11:39;;;;;;;6.33;5.47;;;;;;;25.81;51.53;102069.75;21167399;28;20073;-61
2023/10/02 10:21:56;;;;;;;6.95;5.32;;;;;;;25.81;51.34;102097.78;21142128;28;20097;-61
2023/10/02 10:32:14;;;;;;;6.77;5.50;;;;;;;25.79;51.57;102088.81;21165467;28;20043;-62
2023/10/02 10:42:16;;;;;;;7.15;5.38;;;;;;;25.81;51.50;102102.56;21155154;27;20353;-61
2023/10/02 10:52:34;;;;;;;5.95;5.05;;;;;;;25.76;51.65;102117.44;21117236;28;20036;-62
2023/10/02 11:02:36;;;;;;;7.90;5.43;;;;;;;25.80;51.42;102124.16;21126455;28;20047;-61
2023/10/02 11:12:38;;;;;;;6.75;5.40;;;;;;;25.80;51.56;102124.16;21158831;28;20048;-61
2023/10/02 11:23:03;;;;;;;6.82;5.47;;;;;;;25.78;51.71;102137.63;21151743;28;20046;-60
2023/10/02 11:33:05;;;;;;;6.35;5.30;;;;;;;25.80;51.78;102128.94;21165066;28;20043;-62
2023/10/02 11:43:07;;;;;;;6.60;5.45;;;;;;;25.80;51.75;102128.94;21160837;28;20040;-62
2023/10/02 11:53:08;;;;;;;8.70;6.35;;;;;;;25.81;51.76;102141.81;21160061;28;20039;-62
2023/10/02 12:03:10;;;;;;;6.40;5.25;;;;;;;25.76;51.63;102123.06;21159848;28;20043;-62
2023/10/02 12:13:11;;;;;;;6.13;5.05;;;;;;;25.82;51.54;102121.91;21147316;28;20047;-62
2023/10/02 12:23:14;;;;;;;6.95;5.43;;;;;;;25.80;51.58;102118.56;21140459;28;20043;-62
2023/10/02 12:33:16;;;;;;;4.90;4.40;;;;;;;25.82;51.62;102127.50;21160936;28;20043;-62
2023/10/02 12:43:22;;;;;;;6.03;5.25;;;;;;;25.83;51.84;102133.94;21159705;28;20056;-62
2023/10/02 12:53:27;;;;;;;6.57;5.72;;;;;;;25.84;51.82;102135.63;21092160;28;20044;-62
2023/10/02 13:03:31;;;;;;;6.65;5.18;;;;;;;25.84;51.90;102141.22;21093777;28;20024;-61
2023/10/02 13:13:33;;;;;;;6.90;5.05;;;;;;;25.86;51.71;102153.00;21092574;28;20059;-62
2023/10/02 13:23:36;;;;;;;13.70;5.85;;;;;;;25.87;52.01;102165.06;21120578;28;20487;-59
2023/10/02 13:33:40;;;;;;;9.70;5.72;;;;;;;25.87;52.24;102162.25;21158312;28;20039;-59
2023/10/02 13:43:42;;;;;;;8.25;5.80;;;;;;;25.90;52.00;102179.38;21130199;28;20052;-61
2023/10/02 13:53:44;;;;;;;7.20;5.15;;;;;;;25.94;52.20;102182.44;21162376;28;20096;-62
2023/10/02 14:03:49;;;;;;;8.93;5.40;;;;;;;25.95;52.13;102189.72;21158088;28;20044;-62
2023/10/02 14:13:53;;;;;;;14.32;5.50;;;;;;;25.97;52.01;102190.25;21150114;28;20621;-62
2023/10/02 14:23:55;;;;;;;7.90;5.57;;;;;;;25.97;51.97;102190.25;21150671;27;20081;-62
2023/10/02 14:33:56;;;;;;;8.25;5.40;;;;;;;26.00;51.88;102195.31;21159905;27;20104;-62
2023/10/02 14:43:58;;;;;;;9.25;5.40;;;;;;;26.01;51.98;102199.78;21148106;28;20039;-62
2023/10/02 14:54:02;;;;;;;10.57;5.93;;;;;;;26.00;51.98;102178.50;21142911;28;20043;-62
2023/10/02 15:04:06;;;;;;;12.85;5.78;;;;;;;26.04;52.11;102179.59;21163269;28;20047;-62
2023/10/02 15:14:08;;;;;;;8.13;5.22;;;;;;;26.06;51.86;102177.34;21124291;28;20043;-62
2023/10/02 15:24:10;;;;;;;7.78;5.45;;;;;;;26.09;51.85;102176.78;21158745;28;20390;-61
2023/10/02 15:34:11;;;;;;;11.82;5.65;;;;;;;26.11;51.90;102177.31;21128153;28;20047;-61
2023/10/02 15:44:16;;;;;;;7.68;5.65;;;;;;;26.14;52.03;102171.13;21162605;28;20387;-62
2023/10/02 15:54:20;;;;;;;8.25;5.35;;;;;;;26.16;52.12;102152.06;21157803;28;20043;-62
2023/10/02 16:04:22;;;;;;;9.07;5.68;;;;;;;26.18;52.12;102152.59;21149668;28;20065;-61
2023/10/02 16:14:24;;;;;;;8.38;5.78;;;;;;;26.22;52.01;102124.81;21147875;28;20048;-63
2023/10/02 16:24:26;;;;;;;9.73;5.53;;;;;;;26.24;51.82;102122.53;21164240;28;20030;-63
2023/10/02 16:34:31;;;;;;;9.32;5.60;;;;;;;26.26;52.19;102123.94;21163853;28;20100;-63
2023/10/02 16:44:38;;;;;;;7.93;5.38;;;;;;;26.26;51.85;102115.53;21121914;28;20073;-62
2023/10/02 16:54:41;;;;;;;8.35;5.70;;;;;;;26.31;51.84;102106.25;21160247;28;20051;-62
2023/10/02 17:04:42;;;;;;;7.68;5.13;;;;;;;26.32;51.93;102094.72;21108884;28;20445;-61
2023/10/02 17:14:43;;;;;;;8.55;5.38;;;;;;;26.35;51.63;102080.13;21124208;27;20065;-62
2023/10/02 17:24:45;;;;;;;8.45;5.65;;;;;;;26.37;51.97;102065.78;21173606;28;20047;-61
2023/10/02 17:34:46;;;;;;;10.02;5.68;;;;;;;26.41;51.86;102054.81;21159577;28;20427;-62
2023/10/02 17:44:50;;;;;;;12.23;6.05;;;;;;;26.42;52.33;102034.03;21170930;28;20035;-62
2023/10/02 17:54:54;;;;;;;11.23;5.88;;;;;;;26.40;52.39;102025.09;21173667;28;20456;-61
2023/10/02 18:04:56;;;;;;;14.75;5.90;;;;;;;26.50;52.28;102031.47;21170276;28;20479;-62
2023/10/02 18:15:00;;;;;;;10.23;6.50;;;;;;;26.47;52.14;102004.00;21170416;27;20547;-62
2023/10/02 18:25:06;;;;;;;8.40;5.78;;;;;;;26.62;51.92;102017.06;21170897;28;20028;-63
2023/10/02 18:35:09;;;;;;;8.27;5.68;;;;;;;26.73;51.89;102017.81;21170864;28;20372;-62
2023/10/02 18:45:10;;;;;;;9.23;5.85;;;;;;;26.79;51.27;102009.03;21168485;28;20168;-62
2023/10/02 18:55:14;;;;;;;9.65;5.78;;;;;;;26.68;51.65;101998.22;21143960;28;20112;-63
2023/10/02 19:05:18;;;;;;;8.52;5.65;;;;;;;26.81;51.29;102003.97;21160311;28;20050;-63
2023/10/02 19:15:22;;;;;;;7.95;5.75;;;;;;;26.88;51.15;101991.53;21127631;28;20077;-63
2023/10/02 19:25:23;;;;;;;8.80;5.50;;;;;;;26.77;51.37;101980.41;21141729;28;20035;-62
2023/10/02 19:35:25;;;;;;;7.00;5.53;;;;;;;26.75;51.55;101987.44;21149124;28;20076;-62
2023/10/02 19:45:29;;;;;;;7.25;5.30;;;;;;;26.71;51.64;101992.84;21157028;27;20040;-62
2023/10/02 19:55:31;;;;;;;9.38;5.57;;;;;;;26.63;51.74;101976.63;21162742;28;20456;-63
2023/10/02 20:05:33;;;;;;;11.57;6.82;;;;;;;26.67;51.96;101986.16;21162421;28;20409;-62
2023/10/02 20:15:37;;;;;;;10.52;6.40;;;;;;;26.64;52.18;101989.53;21131354;28;20074;-61
2023/10/02 20:25:39;;;;;;;9.95;5.20;;;;;;;26.65;52.30;101988.38;21142583;28;20039;-62
2023/10/02 20:35:41;;;;;;;10.57;5.78;;;;;;;26.67;52.22;101985.31;21160260;28;20116;-62
2023/10/02 20:45:45;;;;;;;9.38;5.38;;;;;;;26.59;52.38;101951.13;21160064;28;20044;-62
2023/10/02 20:55:53;;;;;;;10.98;5.82;;;;;;;26.66;52.30;101964.78;21159886;28;20032;-63
2023/10/02 21:06:03;;;;;;;7.22;5.38;;;;;;;26.66;52.40;101949.91;21159280;28;20556;-62
2023/10/02 21:16:14;;;;;;;8.57;5.65;;;;;;;26.59;52.02;101941.84;21158850;28;20043;-62
2023/10/02 21:26:15;;;;;;;10.57;5.93;;;;;;;26.64;52.30;101958.66;21158679;28;20044;-63
2023/10/02 21:36:16;;;;;;;6.85;5.30;;;;;;;26.67;52.19;101974.91;21158283;28;20048;-62
2023/10/02 21:46:18;;;;;;;8.15;5.63;;;;;;;26.67;52.25;101979.69;21166604;28;20062;-62
2023/10/02 21:56:20;;;;;;;7.45;5.03;;;;;;;26.66;52.33;101978.81;21147654;28;20044;-62
2023/10/02 22:06:22;;;;;;;8.93;5.53;;;;;;;26.66;52.30;101984.44;21135525;28;20065;-62
2023/10/02 22:16:24;;;;;;;14.57;6.20;;;;;;;26.66;52.48;101995.69;21127468;28;20069;-62
2023/10/02 22:26:28;;;;;;;12.55;4.97;;;;;;;26.67;52.19;101990.94;21161524;28;20474;-61
2023/10/02 22:36:30;;;;;;;14.02;6.43;;;;;;;26.67;52.29;101997.38;21142166;28;20040;-62
2023/10/02 22:46:32;;;;;;;8.35;5.28;;;;;;;26.68;52.32;102003.81;21160538;28;20040;-62
2023/10/02 22:56:34;;;;;;;8.80;5.30;;;;;;;26.67;52.22;102008.59;21123933;28;20388;-62
2023/10/02 23:06:36;;;;;;;10.93;5.28;;;;;;;26.68;52.39;102012.25;21163366;27;20093;-62
2023/10/02 23:16:37;;;;;;;7.03;5.40;;;;;;;26.68;52.18;102010.28;21159966;27;20051;-62
2023/10/02 23:26:39;;;;;;;7.70;5.22;;;;;;;26.67;52.19;102017.03;21156900;27;20036;-62
2023/10/02 23:36:40;;;;;;;6.60;5.32;;;;;;;26.68;52.17;102031.91;21157019;27;20043;-62
2023/10/02 23:46:43;;;;;;;6.78;4.93;;;;;;;26.68;52.12;102055.19;21104863;28;20051;-61
2023/10/02 23:56:48;;;;;;;6.03;5.20;;;;;;;26.68;52.24;102066.44;21153825;28;20402;-62
